createdAt,value
2023-04-11T00:01:16.100Z,19.62
2023-04-11T00:03:44.100Z,20.28
2023-04-11T00:06:12.033Z,20.49
2023-04-11T00:08:39.893Z,21.11
2023-04-11T00:11:08.600Z,21.27
2023-04-11T00:13:37.228Z,22.02
2023-04-11T00:16:05.570Z,19.77
2023-04-11T00:18:36.958Z,20.02
2023-04-11T00:21:05.763Z,22.22
2023-04-11T00:23:33.856Z,20.60
2023-04-11T00:26:01.667Z,19.42
2023-04-11T00:28:29.568Z,20.28
2023-04-11T00:30:57.451Z,20.47
2023-04-11T00:33:25.336Z,21.39
2023-04-11T00:35:54.676Z,22.07
2023-04-11T00:38:22.640Z,22.50
2023-04-11T00:40:50.549Z,22.25
2023-04-11T00:43:18.451Z,22.68
2023-04-11T00:45:46.570Z,22.56
2023-04-11T00:48:14.962Z,21.48
2023-04-11T00:50:44.103Z,21.59
2023-04-11T00:53:14.012Z,21.92
2023-04-11T00:55:42.130Z,22.27
2023-04-11T00:58:10.225Z,21.36
2023-04-11T01:00:38.780Z,21.34
2023-04-11T01:03:06.939Z,19.98
2023-04-11T01:05:36.490Z,20.95
2023-04-11T01:08:05.682Z,21.17
2023-04-11T01:10:35.215Z,21.33
2023-04-11T01:13:03.807Z,21.53
2023-04-11T01:15:32.034Z,21.59
2023-04-11T01:18:02.335Z,21.87
2023-04-11T01:20:31.757Z,21.60
2023-04-11T01:23:03.094Z,21.53
2023-04-11T01:25:32.282Z,21.08
2023-04-11T01:28:00.321Z,22.00
2023-04-11T01:30:28.339Z,21.30
2023-04-11T01:32:56.268Z,21.20
2023-04-11T01:35:24.448Z,21.44
2023-04-11T01:37:53.116Z,22.30
2023-04-11T01:40:22.588Z,22.45
2023-04-11T01:42:52.995Z,22.21
2023-04-11T01:45:22.903Z,20.72
2023-04-11T01:47:52.255Z,20.68
2023-04-11T01:50:20.536Z,21.42
2023-04-11T01:52:49.278Z,22.13
2023-04-11T01:55:17.139Z,21.97
2023-04-11T01:57:45.353Z,22.16
2023-04-11T02:00:16.667Z,21.40
2023-04-11T02:02:44.618Z,21.27
2023-04-11T02:05:12.891Z,21.32
2023-04-11T02:07:41.181Z,19.63
2023-04-11T02:10:09.910Z,21.62
2023-04-11T02:12:37.796Z,20.53
2023-04-11T02:15:06.283Z,21.07
2023-04-11T02:17:36.794Z,20.44
2023-04-11T02:20:06.944Z,20.33
2023-04-11T02:22:34.793Z,20.73
2023-04-11T02:25:02.599Z,20.40
2023-04-11T02:27:31.943Z,19.83
2023-04-11T02:30:00.192Z,19.96
2023-04-11T02:32:30.356Z,19.93
2023-04-11T02:34:59.628Z,20.43
2023-04-11T02:37:28.125Z,19.40
2023-04-11T02:39:58.594Z,18.49
2023-04-11T02:42:26.421Z,18.68
2023-04-11T02:44:55.538Z,19.01
2023-04-11T02:47:27.649Z,19.27
2023-04-11T02:50:00.566Z,19.65
2023-04-11T02:52:33.760Z,19.27
2023-04-11T02:55:02.108Z,19.58
2023-04-11T02:57:29.940Z,19.57
2023-04-11T02:59:58.826Z,19.16
2023-04-11T03:02:37.180Z,19.11
2023-04-11T03:05:08.165Z,18.95
2023-04-11T03:07:40.531Z,19.29
2023-04-11T03:10:10.596Z,19.39
2023-04-11T03:12:38.750Z,20.00
2023-04-11T03:15:09.195Z,19.78
2023-04-11T03:17:37.168Z,20.29
2023-04-11T03:20:11.787Z,19.91
2023-04-11T03:22:39.632Z,20.62
2023-04-11T03:25:08.900Z,20.61
2023-04-11T03:27:37.252Z,21.19
2023-04-11T03:30:07.164Z,20.29
2023-04-11T03:32:42.335Z,17.63
2023-04-11T03:35:12.043Z,18.64
2023-04-11T03:37:44.903Z,17.59
2023-04-11T03:40:13.039Z,18.83
2023-04-11T03:42:47.235Z,17.96
2023-04-11T03:45:19.689Z,16.91
2023-04-11T03:47:49.045Z,17.33
2023-04-11T03:50:21.736Z,18.28
2023-04-11T03:52:55.868Z,18.18
2023-04-11T03:55:24.129Z,17.15
2023-04-11T03:57:52.154Z,19.28
2023-04-11T04:00:21.043Z,19.26
2023-04-11T04:03:00.549Z,19.43
2023-04-11T04:05:30.139Z,17.54
2023-04-11T04:07:57.950Z,19.77
2023-04-11T04:10:38.721Z,18.98
2023-04-11T04:13:06.601Z,19.04
2023-04-11T04:15:37.809Z,18.78
2023-04-11T04:18:07.232Z,18.46
2023-04-11T04:20:48.627Z,18.66
2023-04-11T04:23:18.689Z,17.73
2023-04-11T04:26:13.132Z,18.12
2023-04-11T04:28:46.144Z,19.16
2023-04-11T04:31:22.366Z,19.47
2023-04-11T04:33:52.002Z,19.37
2023-04-11T04:36:25.883Z,18.96
2023-04-11T04:38:56.342Z,19.35
2023-04-11T04:41:24.702Z,19.33
2023-04-11T04:44:01.015Z,19.40
2023-04-11T04:46:41.574Z,19.82
2023-04-11T04:49:10.062Z,19.77
2023-04-11T04:51:40.287Z,19.76
2023-04-11T04:54:08.614Z,19.81
2023-04-11T04:56:37.423Z,19.80
2023-04-11T04:59:05.791Z,19.88
2023-04-11T05:01:40.026Z,20.09
2023-04-11T05:04:10.239Z,20.00
2023-04-11T05:06:47.953Z,19.57
2023-04-11T05:09:16.578Z,19.54
2023-04-11T05:11:44.980Z,19.74
2023-04-11T05:14:21.922Z,20.02
2023-04-11T05:16:51.960Z,19.99
2023-04-11T05:19:20.684Z,20.14
2023-04-11T05:21:52.597Z,20.41
2023-04-11T05:24:20.434Z,20.73
2023-04-11T05:26:49.459Z,20.70
2023-04-11T05:29:19.848Z,20.56
2023-04-11T05:31:49.388Z,21.73
2023-04-11T05:34:18.273Z,21.21
2023-04-11T05:36:49.367Z,21.17
2023-04-11T05:39:18.688Z,20.95
2023-04-11T05:41:46.612Z,20.14
2023-04-11T05:44:14.563Z,19.45
2023-04-11T05:46:42.597Z,17.93
2023-04-11T05:49:11.624Z,17.97
2023-04-11T05:51:39.822Z,18.36
2023-04-11T05:54:08.207Z,18.34
2023-04-11T05:56:39.718Z,18.58
2023-04-11T05:59:07.586Z,18.85
2023-04-11T06:01:35.494Z,18.16
2023-04-11T06:04:03.611Z,18.53
2023-04-11T06:06:31.601Z,18.52
2023-04-11T06:09:01.227Z,18.79
2023-04-11T06:11:29.050Z,18.27
2023-04-11T06:13:58.625Z,18.91
2023-04-11T06:16:26.641Z,19.52
2023-04-11T06:18:54.718Z,19.83
2023-04-11T06:21:22.609Z,17.88
2023-04-11T06:23:50.834Z,18.50
2023-04-11T06:26:18.769Z,17.74
2023-04-11T06:28:46.698Z,17.94
2023-04-11T06:31:16.023Z,18.17
2023-04-11T06:33:44.027Z,18.40
2023-04-11T06:36:12.634Z,18.22
2023-04-11T06:38:40.609Z,17.78
2023-04-11T06:41:08.701Z,17.29
2023-04-11T06:43:36.709Z,17.74
2023-04-11T06:46:04.909Z,17.34
2023-04-11T06:48:34.467Z,17.86
2023-04-11T06:51:02.820Z,17.69
2023-04-11T06:53:30.651Z,18.28
2023-04-11T06:55:59.696Z,18.11
2023-04-11T06:58:27.552Z,18.34
2023-04-11T07:00:55.358Z,18.72
2023-04-11T07:03:25.156Z,18.68
2023-04-11T07:05:54.712Z,18.74
2023-04-11T07:08:22.590Z,18.13
2023-04-11T07:10:50.391Z,19.13
2023-04-11T07:13:18.314Z,19.50
2023-04-11T07:15:46.151Z,19.65
2023-04-11T07:18:14.862Z,19.74
2023-04-11T07:20:42.937Z,19.41
2023-04-11T07:23:12.231Z,20.37
2023-04-11T07:25:40.342Z,19.57
2023-04-11T07:28:08.471Z,20.11
2023-04-11T07:30:36.695Z,20.05
2023-04-11T07:33:05.795Z,19.78
2023-04-11T07:35:34.667Z,19.74
2023-04-11T07:38:03.493Z,19.84
2023-04-11T07:40:33.375Z,19.99
2023-04-11T07:43:01.845Z,20.73
2023-04-11T07:45:29.636Z,20.14
2023-04-11T07:47:57.536Z,20.69
2023-04-11T07:50:25.340Z,20.63
2023-04-11T07:52:53.204Z,20.25
2023-04-11T07:55:21.096Z,19.58
2023-04-11T07:57:50.323Z,19.69
2023-04-11T08:00:23.486Z,19.43
2023-04-11T08:02:52.421Z,19.79
2023-04-11T08:05:20.759Z,20.65
2023-04-11T08:07:48.669Z,20.53
2023-04-11T08:10:16.700Z,19.28
2023-04-11T08:12:44.618Z,19.41
2023-04-11T08:15:14.089Z,20.99
2023-04-11T08:17:43.829Z,20.34
2023-04-11T08:20:13.881Z,19.93
2023-04-11T08:22:44.629Z,19.89
2023-04-11T08:25:14.163Z,20.17
2023-04-11T08:27:42.957Z,19.69
2023-04-11T08:30:11.395Z,20.25
2023-04-11T08:32:40.916Z,20.16
2023-04-11T08:35:10.062Z,22.01
2023-04-11T08:37:38.007Z,21.24
2023-04-11T08:40:07.735Z,20.71
2023-04-11T08:42:36.444Z,21.13
2023-04-11T08:45:08.571Z,20.79
2023-04-11T08:47:37.241Z,19.21
2023-04-11T08:50:07.999Z,20.26
2023-04-11T08:52:40.102Z,20.36
2023-04-11T08:55:08.578Z,21.23
2023-04-11T08:57:38.108Z,19.99
2023-04-11T09:00:13.743Z,22.00
2023-04-11T09:02:59.799Z,20.84
2023-04-11T09:05:31.159Z,22.01
2023-04-11T09:07:59.368Z,21.91
2023-04-11T09:10:27.871Z,21.30
2023-04-11T09:12:56.044Z,20.74
2023-04-11T09:15:25.681Z,20.93
2023-04-11T09:17:53.887Z,22.15
2023-04-11T09:20:26.069Z,21.03
2023-04-11T09:22:55.412Z,21.99
2023-04-11T09:25:24.403Z,20.73
2023-04-11T09:28:08.771Z,20.04
2023-04-11T09:30:37.314Z,20.37
2023-04-11T09:33:20.673Z,21.44
2023-04-11T09:35:49.745Z,22.35
2023-04-11T09:38:30.703Z,22.75
2023-04-11T09:40:59.347Z,23.07
2023-04-11T09:43:28.055Z,21.44
2023-04-11T09:46:12.270Z,21.72
2023-04-11T09:51:15.831Z,20.58
2023-04-11T09:53:50.291Z,20.23
2023-04-11T09:56:18.078Z,19.08
2023-04-11T09:58:48.360Z,19.82
2023-04-11T10:01:16.898Z,19.38
2023-04-11T10:03:47.244Z,19.02
2023-04-11T10:06:23.272Z,18.56
2023-04-11T10:08:52.875Z,19.93
2023-04-11T10:11:25.543Z,19.77
2023-04-11T10:13:53.627Z,20.81
2023-04-11T10:16:24.162Z,20.79
2023-04-11T10:19:28.801Z,21.16
2023-04-11T10:21:57.056Z,21.97
2023-04-11T10:24:26.833Z,21.76
2023-04-11T10:26:57.592Z,22.38
2023-04-11T10:29:50.722Z,21.55
2023-04-11T10:32:22.368Z,21.88
2023-04-11T10:35:25.085Z,21.29
2023-04-11T10:37:53.027Z,22.15
2023-04-11T10:40:22.792Z,22.84
2023-04-11T10:42:51.528Z,21.59
2023-04-11T10:45:25.554Z,22.43
2023-04-11T10:48:05.914Z,22.12
2023-04-11T10:50:40.973Z,21.83
2023-04-11T10:53:14.491Z,20.32
2023-04-11T10:55:49.859Z,22.05
2023-04-11T10:58:19.926Z,21.11
2023-04-11T11:01:25.797Z,22.75
2023-04-11T11:04:00.702Z,22.02
2023-04-11T11:06:29.216Z,22.48
2023-04-11T11:08:57.841Z,23.29
2023-04-11T11:11:27.267Z,23.43
2023-04-11T11:13:56.663Z,22.50
2023-04-11T11:16:26.402Z,23.09
2023-04-11T11:18:55.674Z,23.41
2023-04-11T11:21:28.577Z,22.95
2023-04-11T11:23:59.123Z,22.72
2023-04-11T11:26:42.311Z,21.69
2023-04-11T11:29:11.329Z,21.95
2023-04-11T11:31:41.725Z,22.25
2023-04-11T11:36:43.826Z,21.44
2023-04-11T11:39:12.874Z,21.41
2023-04-11T11:41:42.515Z,21.91
2023-04-11T11:44:22.547Z,22.70
2023-04-11T11:47:02.213Z,21.78
2023-04-11T11:49:44.729Z,22.49
2023-04-11T11:52:12.741Z,21.44
2023-04-11T11:54:47.484Z,21.60
2023-04-11T11:57:23.824Z,23.69
2023-04-11T11:59:56.143Z,24.28
2023-04-11T12:02:26.202Z,24.10
2023-04-11T12:04:59.834Z,23.67
2023-04-11T12:07:32.498Z,23.88
2023-04-11T12:10:01.099Z,22.71
2023-04-11T12:12:37.345Z,22.86
2023-04-11T12:15:11.681Z,21.32
2023-04-11T12:17:39.865Z,22.68
2023-04-11T12:20:09.018Z,23.11
2023-04-11T12:22:37.518Z,23.71
2023-04-11T12:25:07.247Z,23.91
2023-04-11T12:27:37.686Z,24.31
2023-04-11T12:30:06.602Z,22.88
2023-04-11T12:32:35.028Z,23.06
2023-04-11T12:35:03.642Z,22.92
2023-04-11T12:37:32.195Z,23.49
2023-04-11T12:40:00.514Z,23.90
2023-04-11T12:42:28.969Z,24.96
2023-04-11T12:44:58.320Z,24.48
2023-04-11T12:47:26.335Z,22.38
2023-04-11T12:49:54.401Z,22.33
2023-04-11T12:52:22.479Z,23.16
2023-04-11T12:54:50.905Z,23.78
2023-04-11T12:57:18.808Z,18.74
2023-04-11T12:59:46.609Z,20.24
2023-04-11T13:02:16.276Z,19.88
2023-04-11T13:04:44.632Z,19.18
2023-04-11T13:07:12.642Z,19.88
2023-04-11T13:09:40.896Z,18.48
2023-04-11T13:12:09.071Z,19.20
2023-04-11T13:14:37.805Z,19.84
2023-04-11T13:17:06.018Z,19.97
2023-04-11T13:19:36.286Z,20.41
2023-04-11T13:22:04.945Z,20.20
2023-04-11T13:24:33.560Z,21.32
2023-04-11T13:27:04.562Z,20.45
2023-04-11T13:29:32.463Z,20.95
2023-04-11T13:32:00.785Z,21.03
2023-04-11T13:34:29.477Z,21.59
2023-04-11T13:36:58.727Z,21.68
2023-04-11T13:39:26.734Z,22.37
2023-04-11T13:41:54.524Z,22.48
2023-04-11T13:44:22.384Z,21.75
2023-04-11T13:46:50.167Z,22.15
2023-04-11T13:49:18.013Z,21.93
2023-04-11T13:51:45.940Z,21.18
2023-04-11T13:54:15.341Z,23.36
2023-04-11T13:56:43.267Z,23.62
2023-04-11T13:59:11.580Z,22.69
2023-04-11T14:01:40.207Z,20.10
2023-04-11T14:04:08.405Z,20.23
2023-04-11T14:06:37.544Z,19.61
2023-04-11T14:09:06.288Z,21.43
2023-04-11T14:11:35.593Z,21.59
2023-04-11T14:14:03.565Z,22.08
2023-04-11T14:16:31.435Z,20.85
2023-04-11T14:18:59.332Z,22.05
2023-04-11T14:21:28.835Z,21.66
2023-04-11T14:23:57.269Z,21.97
2023-04-11T14:26:25.921Z,21.18
2023-04-11T14:28:55.629Z,19.38
2023-04-11T14:31:24.113Z,17.80
2023-04-11T14:33:53.770Z,17.44
2023-04-11T14:36:23.724Z,19.06
2023-04-11T14:38:52.007Z,18.71
2023-04-11T14:41:20.544Z,20.48
2023-04-11T14:43:48.690Z,21.59
2023-04-11T14:46:18.893Z,21.97
2023-04-11T14:48:47.528Z,21.64
2023-04-11T14:51:15.872Z,21.27
2023-04-11T14:53:44.096Z,20.35
2023-04-11T14:56:12.346Z,20.16
2023-04-11T14:58:40.254Z,21.53
2023-04-11T15:01:09.530Z,21.98
2023-04-11T15:03:39.041Z,22.73
2023-04-11T15:06:07.972Z,22.97
2023-04-11T15:08:36.330Z,21.46
2023-04-11T15:11:04.460Z,19.11
2023-04-11T15:13:35.358Z,19.55
2023-04-11T15:16:04.127Z,20.67
2023-04-11T15:18:33.048Z,20.15
2023-04-11T15:21:03.467Z,21.72
2023-04-11T15:23:31.895Z,22.32
2023-04-11T15:26:02.655Z,24.82
2023-04-11T15:28:33.367Z,23.31
2023-04-11T15:31:05.429Z,23.00
2023-04-11T15:33:34.061Z,22.11
2023-04-11T15:36:03.696Z,20.68
2023-04-11T15:38:31.858Z,21.48
2023-04-11T15:41:00.552Z,26.56
2023-04-11T15:43:31.858Z,27.61
2023-04-11T15:46:02.227Z,23.01
2023-04-11T15:48:30.621Z,23.56
2023-04-11T15:50:58.501Z,22.78
2023-04-11T15:53:27.734Z,24.98
2023-04-11T15:55:55.846Z,24.31
2023-04-11T15:58:34.583Z,21.10
2023-04-11T16:01:03.378Z,22.92
2023-04-11T16:03:32.828Z,25.68
2023-04-11T16:06:01.345Z,26.34
2023-04-11T16:08:30.691Z,25.53
2023-04-11T16:10:58.636Z,26.00
2023-04-11T16:13:26.579Z,23.13
2023-04-11T16:15:54.451Z,27.49
2023-04-11T16:18:22.262Z,26.17
2023-04-11T16:20:50.104Z,22.37
2023-04-11T16:23:18.153Z,24.53
2023-04-11T16:25:47.542Z,25.16
2023-04-11T16:28:15.442Z,26.06
2023-04-11T16:30:43.512Z,24.07
2023-04-11T16:33:12.646Z,25.22
2023-04-11T16:35:40.961Z,23.49
2023-04-11T16:38:08.880Z,23.19
2023-04-11T16:40:37.124Z,22.84
2023-04-11T16:43:06.498Z,25.67
2023-04-11T16:45:34.728Z,27.23
2023-04-11T16:48:03.248Z,27.57
2023-04-11T16:50:31.267Z,26.09
2023-04-11T16:52:59.263Z,24.96
2023-04-11T16:55:27.254Z,23.35
2023-04-11T16:57:55.968Z,23.21
2023-04-11T17:00:26.257Z,22.31
2023-04-11T17:02:54.286Z,22.82
2023-04-11T17:05:24.053Z,20.57
2023-04-11T17:07:52.386Z,21.61
2023-04-11T17:10:22.545Z,21.35
2023-04-11T17:12:50.821Z,20.24
2023-04-11T17:15:19.039Z,21.38
2023-04-11T17:17:48.565Z,21.70
2023-04-11T17:20:16.643Z,21.77
2023-04-11T17:22:44.944Z,22.11
2023-04-11T17:25:13.096Z,22.54
2023-04-11T17:27:41.704Z,22.66
2023-04-11T17:30:11.935Z,22.71
2023-04-11T17:32:40.063Z,21.77
2023-04-11T17:35:10.805Z,20.19
2023-04-11T17:37:39.895Z,21.21
2023-04-11T17:40:13.189Z,21.52
2023-04-11T17:42:42.128Z,19.44
2023-04-11T17:45:17.658Z,21.01
2023-04-11T17:47:47.178Z,20.10
2023-04-11T17:50:17.911Z,21.06
2023-04-11T17:52:47.483Z,20.30
2023-04-11T17:55:17.671Z,20.17
2023-04-11T17:57:47.325Z,20.94
2023-04-11T18:00:20.036Z,21.30
2023-04-11T18:02:49.840Z,21.92
2023-04-11T18:05:24.371Z,22.03
2023-04-11T18:07:56.732Z,21.83
2023-04-11T18:10:27.106Z,21.57
2023-04-11T18:12:56.846Z,19.69
2023-04-11T18:15:27.102Z,20.63
2023-04-11T18:17:55.878Z,20.67
2023-04-11T18:20:25.531Z,21.30
2023-04-11T18:22:56.508Z,22.20
2023-04-11T18:25:25.193Z,22.05
2023-04-11T18:27:53.276Z,21.99
2023-04-11T18:30:21.484Z,21.50
2023-04-11T18:32:51.770Z,21.34
2023-04-11T18:35:56.770Z,21.59
2023-04-11T18:38:45.181Z,21.73
2023-04-11T18:41:19.835Z,20.85
2023-04-11T18:44:02.042Z,20.73
2023-04-11T18:46:31.158Z,21.48
2023-04-11T18:51:28.654Z,19.97
2023-04-11T18:53:57.069Z,20.86
2023-04-11T18:56:26.628Z,21.11
2023-04-11T18:59:04.730Z,21.36
2023-04-11T19:01:50.988Z,21.76
2023-04-11T19:04:19.744Z,21.72
2023-04-11T19:06:52.682Z,21.11
2023-04-11T19:09:22.124Z,21.39
2023-04-11T19:11:51.347Z,21.70
2023-04-11T19:14:19.385Z,21.88
2023-04-11T19:16:47.820Z,21.30
2023-04-11T19:19:15.922Z,21.14
2023-04-11T19:21:43.840Z,20.95
2023-04-11T19:24:13.190Z,20.89
2023-04-11T19:26:41.566Z,20.78
2023-04-11T19:29:09.709Z,21.09
2023-04-11T19:31:37.654Z,21.01
2023-04-11T19:34:06.176Z,20.77
2023-04-11T19:36:34.321Z,21.31
2023-04-11T19:39:02.724Z,21.32
2023-04-11T19:41:32.171Z,20.72
2023-04-11T19:44:00.695Z,20.62
2023-04-11T19:46:28.995Z,20.10
2023-04-11T19:48:57.240Z,19.59
2023-04-11T19:51:25.316Z,19.63
2023-04-11T19:53:53.436Z,20.70
2023-04-11T19:56:22.796Z,20.97
2023-04-11T19:58:52.354Z,20.60
2023-04-11T20:01:20.604Z,19.35
2023-04-11T20:03:48.813Z,18.88
2023-04-11T20:06:18.632Z,17.48
2023-04-11T20:08:46.758Z,18.71
2023-04-11T20:11:15.601Z,19.44
2023-04-11T20:13:43.752Z,20.30
2023-04-11T20:16:13.267Z,20.64
2023-04-11T20:18:41.405Z,20.65
2023-04-11T20:21:09.600Z,20.28
2023-04-11T20:23:37.494Z,20.42
2023-04-11T20:26:05.892Z,20.05
2023-04-11T20:28:34.817Z,19.56
2023-04-11T20:31:04.357Z,19.24
2023-04-11T20:33:33.856Z,18.48
2023-04-11T20:36:03.277Z,18.49
2023-04-11T20:39:13.301Z,18.81
2023-04-11T20:41:41.889Z,18.39
2023-04-11T20:44:10.247Z,18.53
2023-04-11T20:46:39.828Z,19.40
2023-04-11T20:49:12.523Z,19.38
2023-04-11T20:51:41.057Z,19.03
2023-04-11T20:54:08.873Z,18.90
2023-04-11T20:56:36.706Z,19.05
2023-04-11T20:59:07.084Z,19.15
2023-04-11T21:01:35.286Z,18.10
2023-04-11T21:04:03.521Z,18.35
2023-04-11T21:06:33.480Z,18.11
2023-04-11T21:09:02.606Z,19.01
2023-04-11T21:11:30.507Z,19.35
2023-04-11T21:13:58.681Z,19.25
2023-04-11T21:16:26.953Z,18.99
2023-04-11T21:18:54.903Z,19.00
2023-04-11T21:21:23.106Z,18.79
2023-04-11T21:23:52.317Z,19.54
2023-04-11T21:26:20.130Z,18.01
2023-04-11T21:28:48.044Z,17.98
2023-04-11T21:31:16.398Z,17.68
2023-04-11T21:33:46.846Z,18.41
2023-04-11T21:36:15.285Z,18.68
2023-04-11T21:38:43.386Z,18.75
2023-04-11T21:41:12.660Z,17.90
2023-04-11T21:43:41.068Z,17.75
2023-04-11T21:46:08.990Z,16.36
2023-04-11T21:48:36.886Z,16.38
2023-04-11T21:51:04.949Z,17.10
2023-04-11T21:53:32.806Z,16.88
2023-04-11T21:56:00.662Z,16.80
2023-04-11T21:58:30.097Z,17.31
2023-04-11T22:00:57.988Z,16.75
2023-04-11T22:03:28.695Z,16.67
2023-04-11T22:05:58.281Z,16.67
2023-04-11T22:08:29.178Z,16.60
2023-04-11T22:10:57.303Z,16.52
2023-04-11T22:13:25.711Z,16.33
2023-04-11T22:15:58.763Z,16.07
2023-04-11T22:18:27.026Z,17.14
2023-04-11T22:20:55.300Z,16.54
2023-04-11T22:23:25.081Z,16.38
2023-04-11T22:25:57.790Z,16.62
2023-04-11T22:28:26.334Z,16.63
2023-04-11T22:30:57.534Z,16.93
2023-04-11T22:33:25.654Z,17.49
2023-04-11T22:35:54.488Z,17.35
2023-04-11T22:38:22.461Z,17.08
2023-04-11T22:40:50.267Z,16.58
2023-04-11T22:43:18.492Z,16.32
2023-04-11T22:45:46.817Z,15.82
2023-04-11T22:48:16.258Z,16.06
2023-04-11T22:50:49.449Z,16.07
2023-04-11T22:53:18.151Z,15.94
2023-04-11T22:55:46.037Z,15.30
2023-04-11T22:58:13.937Z,15.84
2023-04-11T23:00:43.241Z,15.78
2023-04-11T23:03:14.080Z,15.03
2023-04-11T23:05:43.730Z,15.31
2023-04-11T23:08:11.608Z,15.76
2023-04-11T23:10:39.737Z,15.24
2023-04-11T23:13:08.448Z,14.88
2023-04-11T23:15:37.392Z,15.10
2023-04-11T23:18:05.560Z,15.32
2023-04-11T23:20:36.974Z,15.56
2023-04-11T23:23:06.508Z,15.71
2023-04-11T23:25:35.100Z,15.52
2023-04-11T23:28:03.258Z,15.50
2023-04-11T23:30:31.252Z,15.83
2023-04-11T23:32:59.709Z,15.27
2023-04-11T23:35:28.014Z,15.20
2023-04-11T23:37:55.868Z,15.73
2023-04-11T23:40:25.283Z,15.60
2023-04-11T23:42:53.380Z,16.05
2023-04-11T23:45:22.576Z,16.05
2023-04-11T23:47:50.996Z,15.75
2023-04-11T23:50:19.299Z,15.51
2023-04-11T23:52:47.492Z,15.07
2023-04-11T23:55:15.544Z,14.66
2023-04-11T23:57:44.801Z,14.53
